Terminal Aerodrome Forecast
Issued by NWS Sioux Falls, SD

Home | Current Version | Previous Version | Text Only | Print | Product List | Glossary On
Versions: 1 2 3 4 5 6 7 8 9 10 11 12 13 14 15 16 17 18 19 20 21 22 23
627
FTUS43 KFSD 132336
TAFFSD
TAF
KFSD 132336Z 1400/1424 16006KT P6SM SCT040 SCT250
     FM140400 16008KT P6SM BKN050
     FM141100 18009KT P6SM OVC025
     FM141700 22011KT P6SM BKN045
     FM142000 24011KT P6SM OVC015
     FM142100 27010KT 1 1/2SM -SN OVC012
     FM142300 31013KT P6SM BKN015=

USA.gov is the U.S. government's official web portal to all federal, state and local government web resources and services.